Huvudsida
METAR-TAF:

METAR-TAF

Flygplatser :

Comiso, Italien

latitud: 36-59-30N, longitud: 14-36-25E, höjd: 190 m

Aktuellt väderrapport

Denna rapport gjordes för 29 minuter sedan, klockan 03:50 UTC
Vind 5 kt från ost/nordost, varierande mellan nordost och ost
Temperatur 17°C
Fuktighet 77%
Tryck 1015 hPa
Sikt 10 km eller mer

METAR: LICB 190350Z AUTO 06005KT 040V100 9999 NCD 17/13 Q1015

Tid: 06:19 (04:19 UTC)

Väderprognos

Denna rapport gjordes för 2 timmar och 19 minuter sedan, klockan 02:00 UTC
Prognos gäller från 19 kl. 03 UTC till 19 kl. 12 UTC
Vind 4 kt varierande vindriktning
Sikt 10 km eller mer
Inga moln under 1 500 m eller inga cumulonimbus
Blir
från 19 kl. 08 UTC till 19 kl. 10 UTC
Vind 10 kt från väst/sydväst

TAF: LICB 190200Z 1903/1912 VRB04KT CAVOK BECMG 1908/1910 25010KT

Aktuella väderrapporter och prognoser från 4000 flygplatser (METAR- och TAF-rapporter).

De tillgängliga stationerna syns som gula och röda prickar på kartan.

För musen över prickarna för att se namnen på stationerna.

Klicka sedan för att få väderrapporter och prognoser.

För att ändra kartan: Klicka på de gröna knapparna med ett svart kors på för att zooma in; den gröna knappen med ett streck på för att zooma ut; eller på de gröna pilarna för angränsande kartor.


METAR-TAF: